sensor_id;sensor_type;location;lat;lon;timestamp;P1;durP1;ratioP1;P2;durP2;ratioP2
40503;SDS011;42292;49.048;8.374;2022-11-20T00:03:42;21.33;;;17.73;;
40503;SDS011;42292;49.048;8.374;2022-11-20T00:06:13;19.47;;;16.83;;
40503;SDS011;42292;49.048;8.374;2022-11-20T00:08:40;21.35;;;17.33;;
40503;SDS011;42292;49.048;8.374;2022-11-20T00:11:09;21.10;;;17.10;;
40503;SDS011;42292;49.048;8.374;2022-11-20T00:13:37;21.60;;;17.45;;
40503;SDS011;42292;49.048;8.374;2022-11-20T00:16:05;21.90;;;17.92;;
40503;SDS011;42292;49.048;8.374;2022-11-20T00:18:32;21.25;;;17.25;;
40503;SDS011;42292;49.048;8.374;2022-11-20T00:21:06;21.87;;;17.23;;
40503;SDS011;42292;49.048;8.374;2022-11-20T00:23:35;21.83;;;16.98;;
40503;SDS011;42292;49.048;8.374;2022-11-20T00:26:06;19.85;;;16.17;;
40503;SDS011;42292;49.048;8.374;2022-11-20T00:28:34;21.40;;;17.42;;
40503;SDS011;42292;49.048;8.374;2022-11-20T00:31:01;21.27;;;17.30;;
40503;SDS011;42292;49.048;8.374;2022-11-20T00:33:31;23.90;;;17.83;;
40503;SDS011;42292;49.048;8.374;2022-11-20T00:36:03;23.10;;;17.57;;
40503;SDS011;42292;49.048;8.374;2022-11-20T00:38:31;21.42;;;17.48;;
40503;SDS011;42292;49.048;8.374;2022-11-20T00:41:00;25.58;;;19.13;;
40503;SDS011;42292;49.048;8.374;2022-11-20T00:43:27;23.10;;;17.85;;
40503;SDS011;42292;49.048;8.374;2022-11-20T00:45:59;22.27;;;17.53;;
40503;SDS011;42292;49.048;8.374;2022-11-20T00:48:26;22.88;;;18.45;;
40503;SDS011;42292;49.048;8.374;2022-11-20T00:50:55;23.02;;;17.98;;
40503;SDS011;42292;49.048;8.374;2022-11-20T00:53:21;25.50;;;18.85;;
40503;SDS011;42292;49.048;8.374;2022-11-20T00:58:22;24.30;;;18.42;;
40503;SDS011;42292;49.048;8.374;2022-11-20T01:00:49;23.38;;;16.38;;
40503;SDS011;42292;49.048;8.374;2022-11-20T01:03:15;23.40;;;16.67;;
40503;SDS011;42292;49.048;8.374;2022-11-20T01:05:43;24.10;;;16.73;;
40503;SDS011;42292;49.048;8.374;2022-11-20T01:08:14;21.20;;;15.48;;
40503;SDS011;42292;49.048;8.374;2022-11-20T01:10:41;19.92;;;14.27;;
40503;SDS011;42292;49.048;8.374;2022-11-20T01:13:09;20.13;;;14.23;;
40503;SDS011;42292;49.048;8.374;2022-11-20T01:15:53;20.70;;;15.30;;
40503;SDS011;42292;49.048;8.374;2022-11-20T01:18:21;20.98;;;16.08;;
40503;SDS011;42292;49.048;8.374;2022-11-20T01:20:51;21.83;;;15.90;;
40503;SDS011;42292;49.048;8.374;2022-11-20T01:23:17;22.10;;;16.73;;
40503;SDS011;42292;49.048;8.374;2022-11-20T01:25:42;22.67;;;17.55;;
40503;SDS011;42292;49.048;8.374;2022-11-20T01:28:10;23.55;;;16.88;;
40503;SDS011;42292;49.048;8.374;2022-11-20T01:30:36;23.88;;;17.95;;
40503;SDS011;42292;49.048;8.374;2022-11-20T01:33:01;24.75;;;17.65;;
40503;SDS011;42292;49.048;8.374;2022-11-20T01:35:29;25.50;;;18.20;;
40503;SDS011;42292;49.048;8.374;2022-11-20T01:37:55;24.33;;;18.02;;
40503;SDS011;42292;49.048;8.374;2022-11-20T01:40:23;24.55;;;17.67;;
40503;SDS011;42292;49.048;8.374;2022-11-20T01:42:52;22.00;;;16.52;;
40503;SDS011;42292;49.048;8.374;2022-11-20T01:48:16;22.88;;;15.93;;
40503;SDS011;42292;49.048;8.374;2022-11-20T01:50:44;20.05;;;15.20;;
40503;SDS011;42292;49.048;8.374;2022-11-20T01:53:13;21.70;;;15.67;;
40503;SDS011;42292;49.048;8.374;2022-11-20T01:55:52;17.42;;;14.27;;
40503;SDS011;42292;49.048;8.374;2022-11-20T01:58:26;18.85;;;14.52;;
40503;SDS011;42292;49.048;8.374;2022-11-20T02:00:56;17.98;;;13.70;;
40503;SDS011;42292;49.048;8.374;2022-11-20T02:03:24;17.20;;;12.90;;
40503;SDS011;42292;49.048;8.374;2022-11-20T02:05:52;15.38;;;13.00;;
40503;SDS011;42292;49.048;8.374;2022-11-20T02:08:26;17.25;;;12.15;;
40503;SDS011;42292;49.048;8.374;2022-11-20T02:10:56;14.73;;;11.50;;
40503;SDS011;42292;49.048;8.374;2022-11-20T02:13:24;15.52;;;11.55;;
40503;SDS011;42292;49.048;8.374;2022-11-20T02:18:41;13.70;;;10.25;;
40503;SDS011;42292;49.048;8.374;2022-11-20T02:26:25;14.80;;;9.85;;
40503;SDS011;42292;49.048;8.374;2022-11-20T02:28:54;14.45;;;10.30;;
40503;SDS011;42292;49.048;8.374;2022-11-20T02:31:20;12.75;;;9.55;;
40503;SDS011;42292;49.048;8.374;2022-11-20T02:33:45;14.13;;;10.00;;
40503;SDS011;42292;49.048;8.374;2022-11-20T02:36:11;12.27;;;10.03;;
40503;SDS011;42292;49.048;8.374;2022-11-20T02:38:41;11.10;;;9.45;;
40503;SDS011;42292;49.048;8.374;2022-11-20T02:41:08;12.75;;;9.52;;
40503;SDS011;42292;49.048;8.374;2022-11-20T02:43:34;12.33;;;9.23;;
40503;SDS011;42292;49.048;8.374;2022-11-20T02:45:59;14.38;;;9.68;;
40503;SDS011;42292;49.048;8.374;2022-11-20T02:48:25;10.43;;;8.13;;
40503;SDS011;42292;49.048;8.374;2022-11-20T02:50:50;10.67;;;8.07;;
40503;SDS011;42292;49.048;8.374;2022-11-20T02:53:16;19.15;;;15.23;;
40503;SDS011;42292;49.048;8.374;2022-11-20T02:55:44;13.73;;;8.32;;
40503;SDS011;42292;49.048;8.374;2022-11-20T02:58:12;10.55;;;8.05;;
40503;SDS011;42292;49.048;8.374;2022-11-20T03:00:39;9.52;;;7.63;;
40503;SDS011;42292;49.048;8.374;2022-11-20T03:03:05;11.35;;;7.95;;
40503;SDS011;42292;49.048;8.374;2022-11-20T03:05:30;10.98;;;7.13;;
40503;SDS011;42292;49.048;8.374;2022-11-20T03:07:56;9.77;;;7.37;;
40503;SDS011;42292;49.048;8.374;2022-11-20T03:10:24;10.35;;;7.53;;
40503;SDS011;42292;49.048;8.374;2022-11-20T03:12:55;11.27;;;7.73;;
40503;SDS011;42292;49.048;8.374;2022-11-20T03:15:22;10.73;;;7.70;;
40503;SDS011;42292;49.048;8.374;2022-11-20T03:17:48;8.77;;;7.53;;
40503;SDS011;42292;49.048;8.374;2022-11-20T03:20:17;11.07;;;8.00;;
40503;SDS011;42292;49.048;8.374;2022-11-20T03:22:43;9.53;;;7.73;;
40503;SDS011;42292;49.048;8.374;2022-11-20T03:25:08;9.73;;;7.80;;
40503;SDS011;42292;49.048;8.374;2022-11-20T03:27:36;11.35;;;7.85;;
40503;SDS011;42292;49.048;8.374;2022-11-20T03:30:02;9.73;;;7.67;;
40503;SDS011;42292;49.048;8.374;2022-11-20T03:32:28;10.20;;;7.82;;
40503;SDS011;42292;49.048;8.374;2022-11-20T03:34:56;11.17;;;7.80;;
40503;SDS011;42292;49.048;8.374;2022-11-20T03:37:27;10.23;;;8.18;;
40503;SDS011;42292;49.048;8.374;2022-11-20T03:39:52;9.77;;;7.97;;
40503;SDS011;42292;49.048;8.374;2022-11-20T03:42:20;10.47;;;8.03;;
40503;SDS011;42292;49.048;8.374;2022-11-20T03:45:04;9.30;;;6.90;;
40503;SDS011;42292;49.048;8.374;2022-11-20T03:47:33;10.48;;;7.50;;
40503;SDS011;42292;49.048;8.374;2022-11-20T03:50:01;9.93;;;7.33;;
40503;SDS011;42292;49.048;8.374;2022-11-20T03:52:26;9.55;;;7.13;;
40503;SDS011;42292;49.048;8.374;2022-11-20T03:54:52;9.37;;;7.00;;
40503;SDS011;42292;49.048;8.374;2022-11-20T03:57:17;11.88;;;7.53;;
40503;SDS011;42292;49.048;8.374;2022-11-20T03:59:45;9.45;;;6.80;;
40503;SDS011;42292;49.048;8.374;2022-11-20T04:02:13;8.07;;;6.43;;
40503;SDS011;42292;49.048;8.374;2022-11-20T04:04:39;8.57;;;7.20;;
40503;SDS011;42292;49.048;8.374;2022-11-20T04:07:06;8.70;;;6.47;;
40503;SDS011;42292;49.048;8.374;2022-11-20T04:09:34;10.07;;;7.63;;
40503;SDS011;42292;49.048;8.374;2022-11-20T04:12:00;9.07;;;6.87;;
40503;SDS011;42292;49.048;8.374;2022-11-20T04:14:25;8.93;;;6.40;;
40503;SDS011;42292;49.048;8.374;2022-11-20T04:16:51;8.93;;;7.67;;
40503;SDS011;42292;49.048;8.374;2022-11-20T04:19:19;9.50;;;6.88;;
40503;SDS011;42292;49.048;8.374;2022-11-20T04:21:49;7.95;;;6.43;;
40503;SDS011;42292;49.048;8.374;2022-11-20T04:24:14;10.88;;;6.70;;
40503;SDS011;42292;49.048;8.374;2022-11-20T04:26:40;8.17;;;6.80;;
40503;SDS011;42292;49.048;8.374;2022-11-20T04:29:10;8.25;;;6.30;;
40503;SDS011;42292;49.048;8.374;2022-11-20T04:31:36;7.75;;;6.07;;
40503;SDS011;42292;49.048;8.374;2022-11-20T04:34:03;8.38;;;5.55;;
40503;SDS011;42292;49.048;8.374;2022-11-20T04:36:30;9.87;;;5.80;;
40503;SDS011;42292;49.048;8.374;2022-11-20T04:39:02;8.85;;;5.93;;
40503;SDS011;42292;49.048;8.374;2022-11-20T04:41:31;7.93;;;5.43;;
40503;SDS011;42292;49.048;8.374;2022-11-20T04:43:59;9.20;;;5.67;;
40503;SDS011;42292;49.048;8.374;2022-11-20T04:46:28;7.97;;;5.35;;
40503;SDS011;42292;49.048;8.374;2022-11-20T04:48:57;8.68;;;4.88;;
40503;SDS011;42292;49.048;8.374;2022-11-20T04:51:28;8.00;;;5.20;;
40503;SDS011;42292;49.048;8.374;2022-11-20T04:53:54;7.63;;;5.35;;
40503;SDS011;42292;49.048;8.374;2022-11-20T04:56:19;7.67;;;5.63;;
40503;SDS011;42292;49.048;8.374;2022-11-20T04:58:47;8.13;;;5.70;;
40503;SDS011;42292;49.048;8.374;2022-11-20T05:01:16;6.32;;;5.13;;
40503;SDS011;42292;49.048;8.374;2022-11-20T05:03:48;6.07;;;5.40;;
40503;SDS011;42292;49.048;8.374;2022-11-20T05:06:15;7.50;;;5.45;;
40503;SDS011;42292;49.048;8.374;2022-11-20T05:08:41;6.20;;;5.35;;
40503;SDS011;42292;49.048;8.374;2022-11-20T05:11:08;7.00;;;5.55;;
40503;SDS011;42292;49.048;8.374;2022-11-20T05:13:38;6.97;;;5.43;;
40503;SDS011;42292;49.048;8.374;2022-11-20T05:16:05;7.75;;;5.45;;
40503;SDS011;42292;49.048;8.374;2022-11-20T05:18:35;8.73;;;5.68;;
40503;SDS011;42292;49.048;8.374;2022-11-20T05:21:04;8.65;;;5.75;;
40503;SDS011;42292;49.048;8.374;2022-11-20T05:23:30;8.03;;;5.47;;
40503;SDS011;42292;49.048;8.374;2022-11-20T05:26:00;8.93;;;5.75;;
40503;SDS011;42292;49.048;8.374;2022-11-20T05:28:26;6.40;;;5.55;;
40503;SDS011;42292;49.048;8.374;2022-11-20T05:30:53;11.57;;;6.03;;
40503;SDS011;42292;49.048;8.374;2022-11-20T05:33:19;8.63;;;6.13;;
40503;SDS011;42292;49.048;8.374;2022-11-20T05:35:45;7.45;;;5.68;;
40503;SDS011;42292;49.048;8.374;2022-11-20T05:38:13;8.35;;;5.30;;
40503;SDS011;42292;49.048;8.374;2022-11-20T05:40:39;7.38;;;5.57;;
40503;SDS011;42292;49.048;8.374;2022-11-20T05:43:07;8.00;;;5.33;;
40503;SDS011;42292;49.048;8.374;2022-11-20T05:45:37;8.98;;;6.28;;
40503;SDS011;42292;49.048;8.374;2022-11-20T05:48:03;9.73;;;6.50;;
40503;SDS011;42292;49.048;8.374;2022-11-20T05:50:31;9.05;;;5.85;;
40503;SDS011;42292;49.048;8.374;2022-11-20T05:53:00;7.22;;;5.57;;
40503;SDS011;42292;49.048;8.374;2022-11-20T05:55:26;8.13;;;5.57;;
40503;SDS011;42292;49.048;8.374;2022-11-20T05:57:54;6.60;;;5.45;;
40503;SDS011;42292;49.048;8.374;2022-11-20T06:00:25;7.90;;;5.50;;
40503;SDS011;42292;49.048;8.374;2022-11-20T06:02:55;7.55;;;5.50;;
40503;SDS011;42292;49.048;8.374;2022-11-20T06:05:24;7.07;;;5.85;;
40503;SDS011;42292;49.048;8.374;2022-11-20T06:07:57;8.50;;;5.90;;
40503;SDS011;42292;49.048;8.374;2022-11-20T06:10:27;6.00;;;5.40;;
40503;SDS011;42292;49.048;8.374;2022-11-20T06:12:53;7.90;;;5.20;;
40503;SDS011;42292;49.048;8.374;2022-11-20T06:15:21;6.00;;;5.03;;
40503;SDS011;42292;49.048;8.374;2022-11-20T06:17:51;6.72;;;5.22;;
40503;SDS011;42292;49.048;8.374;2022-11-20T06:20:23;9.17;;;5.90;;
40503;SDS011;42292;49.048;8.374;2022-11-20T06:22:48;8.32;;;5.28;;
40503;SDS011;42292;49.048;8.374;2022-11-20T06:25:14;6.53;;;5.13;;
40503;SDS011;42292;49.048;8.374;2022-11-20T06:27:40;7.37;;;5.10;;
40503;SDS011;42292;49.048;8.374;2022-11-20T06:30:05;8.30;;;5.05;;
40503;SDS011;42292;49.048;8.374;2022-11-20T06:32:32;6.67;;;4.70;;
40503;SDS011;42292;49.048;8.374;2022-11-20T06:34:58;6.38;;;4.80;;
40503;SDS011;42292;49.048;8.374;2022-11-20T06:37:25;5.65;;;4.70;;
40503;SDS011;42292;49.048;8.374;2022-11-20T06:39:53;5.47;;;4.60;;
40503;SDS011;42292;49.048;8.374;2022-11-20T06:42:21;5.28;;;4.65;;
40503;SDS011;42292;49.048;8.374;2022-11-20T06:44:47;5.93;;;4.95;;
40503;SDS011;42292;49.048;8.374;2022-11-20T06:47:15;6.20;;;4.60;;
40503;SDS011;42292;49.048;8.374;2022-11-20T06:49:40;5.70;;;4.10;;
40503;SDS011;42292;49.048;8.374;2022-11-20T06:52:06;5.97;;;4.17;;
40503;SDS011;42292;49.048;8.374;2022-11-20T06:54:31;7.80;;;4.00;;
40503;SDS011;42292;49.048;8.374;2022-11-20T06:56:59;5.22;;;3.75;;
40503;SDS011;42292;49.048;8.374;2022-11-20T06:59:25;5.57;;;3.83;;
40503;SDS011;42292;49.048;8.374;2022-11-20T07:01:50;4.03;;;3.63;;
40503;SDS011;42292;49.048;8.374;2022-11-20T07:04:16;4.72;;;3.45;;
40503;SDS011;42292;49.048;8.374;2022-11-20T07:06:41;4.63;;;3.63;;
40503;SDS011;42292;49.048;8.374;2022-11-20T07:09:07;4.27;;;3.50;;
40503;SDS011;42292;49.048;8.374;2022-11-20T07:11:35;5.97;;;3.63;;
40503;SDS011;42292;49.048;8.374;2022-11-20T07:14:00;7.17;;;6.10;;
40503;SDS011;42292;49.048;8.374;2022-11-20T07:16:26;12.30;;;9.32;;
40503;SDS011;42292;49.048;8.374;2022-11-20T07:18:52;4.72;;;3.88;;
40503;SDS011;42292;49.048;8.374;2022-11-20T07:21:19;4.82;;;3.53;;
40503;SDS011;42292;49.048;8.374;2022-11-20T07:23:50;4.75;;;3.45;;
40503;SDS011;42292;49.048;8.374;2022-11-20T07:26:15;5.80;;;4.13;;
40503;SDS011;42292;49.048;8.374;2022-11-20T07:28:43;7.07;;;4.10;;
40503;SDS011;42292;49.048;8.374;2022-11-20T07:31:10;6.68;;;4.00;;
40503;SDS011;42292;49.048;8.374;2022-11-20T07:33:37;5.13;;;4.07;;
40503;SDS011;42292;49.048;8.374;2022-11-20T07:36:02;4.72;;;3.90;;
40503;SDS011;42292;49.048;8.374;2022-11-20T07:38:33;6.18;;;4.30;;
40503;SDS011;42292;49.048;8.374;2022-11-20T07:40:58;7.23;;;4.90;;
40503;SDS011;42292;49.048;8.374;2022-11-20T07:43:26;6.20;;;4.38;;
40503;SDS011;42292;49.048;8.374;2022-11-20T07:45:55;8.55;;;7.13;;
40503;SDS011;42292;49.048;8.374;2022-11-20T07:48:21;11.30;;;8.18;;
40503;SDS011;42292;49.048;8.374;2022-11-20T07:50:49;7.55;;;5.22;;
40503;SDS011;42292;49.048;8.374;2022-11-20T07:53:20;8.93;;;5.63;;
40503;SDS011;42292;49.048;8.374;2022-11-20T07:55:46;9.02;;;5.47;;
40503;SDS011;42292;49.048;8.374;2022-11-20T07:58:12;7.32;;;5.10;;
40503;SDS011;42292;49.048;8.374;2022-11-20T08:00:39;6.40;;;5.00;;
40503;SDS011;42292;49.048;8.374;2022-11-20T08:03:07;7.13;;;5.53;;
40503;SDS011;42292;49.048;8.374;2022-11-20T08:05:35;6.28;;;5.40;;
40503;SDS011;42292;49.048;8.374;2022-11-20T08:08:00;7.95;;;5.53;;
40503;SDS011;42292;49.048;8.374;2022-11-20T08:10:26;5.82;;;4.97;;
40503;SDS011;42292;49.048;8.374;2022-11-20T08:12:54;5.83;;;5.20;;
40503;SDS011;42292;49.048;8.374;2022-11-20T08:15:39;7.60;;;5.57;;
40503;SDS011;42292;49.048;8.374;2022-11-20T08:18:15;9.10;;;5.40;;
40503;SDS011;42292;49.048;8.374;2022-11-20T08:20:42;7.05;;;4.70;;
40503;SDS011;42292;49.048;8.374;2022-11-20T08:23:07;6.57;;;5.40;;
40503;SDS011;42292;49.048;8.374;2022-11-20T08:25:34;7.22;;;5.15;;
40503;SDS011;42292;49.048;8.374;2022-11-20T08:28:02;7.00;;;5.30;;
40503;SDS011;42292;49.048;8.374;2022-11-20T08:30:32;10.30;;;5.20;;
40503;SDS011;42292;49.048;8.374;2022-11-20T08:33:03;6.13;;;5.53;;
40503;SDS011;42292;49.048;8.374;2022-11-20T08:35:35;14.70;;;10.07;;
40503;SDS011;42292;49.048;8.374;2022-11-20T08:38:02;9.50;;;6.83;;
40503;SDS011;42292;49.048;8.374;2022-11-20T08:40:29;9.23;;;6.25;;
40503;SDS011;42292;49.048;8.374;2022-11-20T08:42:57;10.73;;;8.52;;
40503;SDS011;42292;49.048;8.374;2022-11-20T08:45:23;7.32;;;5.72;;
40503;SDS011;42292;49.048;8.374;2022-11-20T08:47:49;9.93;;;5.97;;
40503;SDS011;42292;49.048;8.374;2022-11-20T08:50:15;8.32;;;5.63;;
40503;SDS011;42292;49.048;8.374;2022-11-20T08:52:42;7.38;;;5.70;;
40503;SDS011;42292;49.048;8.374;2022-11-20T08:55:10;8.05;;;6.47;;
40503;SDS011;42292;49.048;8.374;2022-11-20T08:57:40;9.57;;;6.10;;
40503;SDS011;42292;49.048;8.374;2022-11-20T09:00:06;7.30;;;5.30;;
40503;SDS011;42292;49.048;8.374;2022-11-20T09:02:38;7.00;;;5.32;;
40503;SDS011;42292;49.048;8.374;2022-11-20T09:05:05;5.80;;;5.10;;
40503;SDS011;42292;49.048;8.374;2022-11-20T09:07:34;7.05;;;5.50;;
40503;SDS011;42292;49.048;8.374;2022-11-20T09:09:59;10.00;;;6.28;;
40503;SDS011;42292;49.048;8.374;2022-11-20T09:12:30;6.60;;;5.53;;
40503;SDS011;42292;49.048;8.374;2022-11-20T09:14:55;7.00;;;5.60;;
40503;SDS011;42292;49.048;8.374;2022-11-20T09:17:23;6.30;;;5.22;;
40503;SDS011;42292;49.048;8.374;2022-11-20T09:19:49;6.65;;;4.72;;
40503;SDS011;42292;49.048;8.374;2022-11-20T09:22:16;6.85;;;4.97;;
40503;SDS011;42292;49.048;8.374;2022-11-20T09:24:42;7.10;;;4.57;;
40503;SDS011;42292;49.048;8.374;2022-11-20T09:27:08;6.30;;;4.60;;
40503;SDS011;42292;49.048;8.374;2022-11-20T09:29:33;6.82;;;4.55;;
40503;SDS011;42292;49.048;8.374;2022-11-20T09:31:59;6.80;;;5.00;;
40503;SDS011;42292;49.048;8.374;2022-11-20T09:34:25;6.30;;;4.63;;
40503;SDS011;42292;49.048;8.374;2022-11-20T09:36:50;6.63;;;4.10;;
40503;SDS011;42292;49.048;8.374;2022-11-20T09:39:16;6.13;;;4.67;;
40503;SDS011;42292;49.048;8.374;2022-11-20T09:56:03;9.00;;;6.18;;
40503;SDS011;42292;49.048;8.374;2022-11-20T10:01:21;16.73;;;13.93;;
40503;SDS011;42292;49.048;8.374;2022-11-20T10:04:13;17.80;;;15.30;;
40503;SDS011;42292;49.048;8.374;2022-11-20T10:06:48;7.07;;;5.18;;
40503;SDS011;42292;49.048;8.374;2022-11-20T10:26:09;8.52;;;5.95;;
40503;SDS011;42292;49.048;8.374;2022-11-20T10:28:46;8.77;;;5.80;;
40503;SDS011;42292;49.048;8.374;2022-11-20T10:36:54;6.45;;;5.05;;
40503;SDS011;42292;49.048;8.374;2022-11-20T10:39:28;6.50;;;5.07;;
40503;SDS011;42292;49.048;8.374;2022-11-20T10:42:03;7.32;;;4.88;;
40503;SDS011;42292;49.048;8.374;2022-11-20T10:44:36;6.72;;;5.30;;
40503;SDS011;42292;49.048;8.374;2022-11-20T10:47:24;6.50;;;4.88;;
40503;SDS011;42292;49.048;8.374;2022-11-20T10:49:55;7.93;;;4.85;;
40503;SDS011;42292;49.048;8.374;2022-11-20T11:00:20;5.75;;;4.00;;
40503;SDS011;42292;49.048;8.374;2022-11-20T11:02:49;6.63;;;3.80;;
40503;SDS011;42292;49.048;8.374;2022-11-20T11:08:21;7.70;;;3.95;;
40503;SDS011;42292;49.048;8.374;2022-11-20T11:13:21;8.85;;;3.88;;
40503;SDS011;42292;49.048;8.374;2022-11-20T11:15:51;5.15;;;3.30;;
40503;SDS011;42292;49.048;8.374;2022-11-20T11:21:12;9.80;;;3.85;;
40503;SDS011;42292;49.048;8.374;2022-11-20T11:23:48;6.38;;;2.80;;
40503;SDS011;42292;49.048;8.374;2022-11-20T11:26:24;9.02;;;3.90;;
40503;SDS011;42292;49.048;8.374;2022-11-20T11:28:55;6.73;;;3.27;;
40503;SDS011;42292;49.048;8.374;2022-11-20T11:31:28;7.15;;;3.00;;
40503;SDS011;42292;49.048;8.374;2022-11-20T11:34:16;6.53;;;3.38;;
40503;SDS011;42292;49.048;8.374;2022-11-20T11:36:52;5.75;;;2.50;;
40503;SDS011;42292;49.048;8.374;2022-11-20T11:39:21;7.20;;;2.67;;
40503;SDS011;42292;49.048;8.374;2022-11-20T11:41:48;7.53;;;3.47;;
40503;SDS011;42292;49.048;8.374;2022-11-20T11:47:03;6.07;;;2.60;;
40503;SDS011;42292;49.048;8.374;2022-11-20T11:50:08;4.90;;;2.38;;
40503;SDS011;42292;49.048;8.374;2022-11-20T12:04:17;4.30;;;1.70;;
40503;SDS011;42292;49.048;8.374;2022-11-20T12:07:01;4.57;;;1.42;;
40503;SDS011;42292;49.048;8.374;2022-11-20T12:09:41;4.40;;;1.90;;
40503;SDS011;42292;49.048;8.374;2022-11-20T12:12:19;5.15;;;1.70;;
40503;SDS011;42292;49.048;8.374;2022-11-20T12:14:53;4.28;;;1.67;;
40503;SDS011;42292;49.048;8.374;2022-11-20T12:17:25;3.65;;;1.60;;
40503;SDS011;42292;49.048;8.374;2022-11-20T12:19:53;4.03;;;1.58;;
40503;SDS011;42292;49.048;8.374;2022-11-20T12:25:14;6.68;;;1.88;;
40503;SDS011;42292;49.048;8.374;2022-11-20T12:30:35;6.88;;;2.85;;
40503;SDS011;42292;49.048;8.374;2022-11-20T12:36:19;8.40;;;3.13;;
40503;SDS011;42292;49.048;8.374;2022-11-20T12:39:08;5.55;;;2.65;;
40503;SDS011;42292;49.048;8.374;2022-11-20T12:53:01;4.38;;;1.52;;
40503;SDS011;42292;49.048;8.374;2022-11-20T12:58:03;4.43;;;1.83;;
40503;SDS011;42292;49.048;8.374;2022-11-20T13:00:30;3.10;;;1.05;;
40503;SDS011;42292;49.048;8.374;2022-11-20T13:05:55;6.22;;;1.35;;
40503;SDS011;42292;49.048;8.374;2022-11-20T13:08:27;2.38;;;1.10;;
40503;SDS011;42292;49.048;8.374;2022-11-20T13:13:40;3.30;;;1.03;;
40503;SDS011;42292;49.048;8.374;2022-11-20T13:18:44;3.53;;;1.17;;
40503;SDS011;42292;49.048;8.374;2022-11-20T13:29:36;5.20;;;1.90;;
40503;SDS011;42292;49.048;8.374;2022-11-20T13:32:15;2.88;;;1.20;;
40503;SDS011;42292;49.048;8.374;2022-11-20T13:35:00;6.05;;;1.90;;
40503;SDS011;42292;49.048;8.374;2022-11-20T13:42:56;3.42;;;1.10;;
40503;SDS011;42292;49.048;8.374;2022-11-20T13:45:30;5.53;;;1.50;;
40503;SDS011;42292;49.048;8.374;2022-11-20T13:48:00;3.60;;;1.40;;
40503;SDS011;42292;49.048;8.374;2022-11-20T13:51:02;3.05;;;1.20;;
40503;SDS011;42292;49.048;8.374;2022-11-20T14:02:23;4.68;;;1.33;;
40503;SDS011;42292;49.048;8.374;2022-11-20T14:04:54;5.63;;;1.63;;
40503;SDS011;42292;49.048;8.374;2022-11-20T14:07:27;4.90;;;1.77;;
40503;SDS011;42292;49.048;8.374;2022-11-20T14:10:02;4.68;;;2.78;;
40503;SDS011;42292;49.048;8.374;2022-11-20T14:12:29;6.40;;;2.10;;
40503;SDS011;42292;49.048;8.374;2022-11-20T14:15:01;5.67;;;2.50;;
40503;SDS011;42292;49.048;8.374;2022-11-20T14:19:56;3.47;;;1.80;;
40503;SDS011;42292;49.048;8.374;2022-11-20T14:22:26;4.57;;;1.50;;
40503;SDS011;42292;49.048;8.374;2022-11-20T14:27:43;6.75;;;1.88;;
40503;SDS011;42292;49.048;8.374;2022-11-20T14:30:16;8.57;;;1.75;;
40503;SDS011;42292;49.048;8.374;2022-11-20T14:32:44;4.25;;;1.70;;
40503;SDS011;42292;49.048;8.374;2022-11-20T14:35:20;2.40;;;0.88;;
40503;SDS011;42292;49.048;8.374;2022-11-20T14:37:51;3.85;;;1.50;;
40503;SDS011;42292;49.048;8.374;2022-11-20T14:40:35;3.92;;;1.38;;
40503;SDS011;42292;49.048;8.374;2022-11-20T14:43:01;3.72;;;1.38;;
40503;SDS011;42292;49.048;8.374;2022-11-20T14:48:51;3.65;;;1.20;;
40503;SDS011;42292;49.048;8.374;2022-11-20T14:51:27;4.20;;;1.20;;
40503;SDS011;42292;49.048;8.374;2022-11-20T14:56:37;16.70;;;15.00;;
40503;SDS011;42292;49.048;8.374;2022-11-20T14:59:08;4.07;;;1.33;;
40503;SDS011;42292;49.048;8.374;2022-11-20T15:01:34;4.20;;;1.13;;
40503;SDS011;42292;49.048;8.374;2022-11-20T15:06:36;4.22;;;1.60;;
40503;SDS011;42292;49.048;8.374;2022-11-20T15:09:12;2.72;;;1.00;;
40503;SDS011;42292;49.048;8.374;2022-11-20T15:11:39;4.75;;;1.42;;
40503;SDS011;42292;49.048;8.374;2022-11-20T15:14:21;3.80;;;1.40;;
40503;SDS011;42292;49.048;8.374;2022-11-20T15:16:50;5.13;;;1.38;;
40503;SDS011;42292;49.048;8.374;2022-11-20T15:19:18;2.25;;;1.08;;
40503;SDS011;42292;49.048;8.374;2022-11-20T15:21:49;4.88;;;1.38;;
40503;SDS011;42292;49.048;8.374;2022-11-20T15:24:15;4.50;;;1.48;;
40503;SDS011;42292;49.048;8.374;2022-11-20T15:26:41;3.72;;;1.13;;
40503;SDS011;42292;49.048;8.374;2022-11-20T15:29:10;5.47;;;1.40;;
40503;SDS011;42292;49.048;8.374;2022-11-20T15:31:39;4.45;;;1.58;;
40503;SDS011;42292;49.048;8.374;2022-11-20T15:34:10;6.18;;;2.30;;
40503;SDS011;42292;49.048;8.374;2022-11-20T15:36:37;5.72;;;2.22;;
40503;SDS011;42292;49.048;8.374;2022-11-20T15:39:03;4.60;;;1.80;;
40503;SDS011;42292;49.048;8.374;2022-11-20T15:41:29;5.57;;;2.50;;
40503;SDS011;42292;49.048;8.374;2022-11-20T15:43:55;5.57;;;2.55;;
40503;SDS011;42292;49.048;8.374;2022-11-20T15:46:23;4.85;;;2.33;;
40503;SDS011;42292;49.048;8.374;2022-11-20T15:48:56;4.47;;;1.80;;
40503;SDS011;42292;49.048;8.374;2022-11-20T15:51:27;4.17;;;1.70;;
40503;SDS011;42292;49.048;8.374;2022-11-20T15:53:58;3.20;;;1.60;;
40503;SDS011;42292;49.048;8.374;2022-11-20T15:56:24;5.85;;;2.00;;
40503;SDS011;42292;49.048;8.374;2022-11-20T15:58:50;2.97;;;1.30;;
40503;SDS011;42292;49.048;8.374;2022-11-20T16:01:17;3.90;;;1.60;;
40503;SDS011;42292;49.048;8.374;2022-11-20T16:03:48;5.25;;;2.05;;
40503;SDS011;42292;49.048;8.374;2022-11-20T16:06:13;5.13;;;2.00;;
40503;SDS011;42292;49.048;8.374;2022-11-20T16:08:41;3.95;;;2.00;;
40503;SDS011;42292;49.048;8.374;2022-11-20T16:11:06;3.73;;;1.87;;
40503;SDS011;42292;49.048;8.374;2022-11-20T16:13:35;4.43;;;1.73;;
40503;SDS011;42292;49.048;8.374;2022-11-20T16:16:23;4.57;;;1.70;;
40503;SDS011;42292;49.048;8.374;2022-11-20T16:18:55;6.10;;;1.98;;
40503;SDS011;42292;49.048;8.374;2022-11-20T16:21:21;3.80;;;1.63;;
40503;SDS011;42292;49.048;8.374;2022-11-20T16:23:52;3.53;;;1.40;;
40503;SDS011;42292;49.048;8.374;2022-11-20T16:26:18;5.00;;;1.70;;
40503;SDS011;42292;49.048;8.374;2022-11-20T16:28:45;3.40;;;1.80;;
40503;SDS011;42292;49.048;8.374;2022-11-20T16:31:15;3.23;;;2.03;;
40503;SDS011;42292;49.048;8.374;2022-11-20T16:33:51;5.20;;;1.88;;
40503;SDS011;42292;49.048;8.374;2022-11-20T16:36:18;4.43;;;2.33;;
40503;SDS011;42292;49.048;8.374;2022-11-20T16:38:51;3.47;;;2.45;;
40503;SDS011;42292;49.048;8.374;2022-11-20T16:41:20;3.83;;;1.85;;
40503;SDS011;42292;49.048;8.374;2022-11-20T16:43:54;4.85;;;2.25;;
40503;SDS011;42292;49.048;8.374;2022-11-20T16:46:22;5.07;;;2.53;;
40503;SDS011;42292;49.048;8.374;2022-11-20T16:48:53;3.72;;;1.50;;
40503;SDS011;42292;49.048;8.374;2022-11-20T16:51:23;7.38;;;2.28;;
40503;SDS011;42292;49.048;8.374;2022-11-20T16:53:49;4.55;;;2.05;;
40503;SDS011;42292;49.048;8.374;2022-11-20T16:56:18;3.20;;;2.20;;
40503;SDS011;42292;49.048;8.374;2022-11-20T16:58:48;2.80;;;1.80;;
40503;SDS011;42292;49.048;8.374;2022-11-20T17:01:18;2.78;;;1.80;;
40503;SDS011;42292;49.048;8.374;2022-11-20T17:04:00;2.83;;;1.70;;
40503;SDS011;42292;49.048;8.374;2022-11-20T17:06:32;5.53;;;1.90;;
40503;SDS011;42292;49.048;8.374;2022-11-20T17:09:01;3.88;;;1.40;;
40503;SDS011;42292;49.048;8.374;2022-11-20T17:11:28;3.80;;;2.28;;
40503;SDS011;42292;49.048;8.374;2022-11-20T17:13:56;7.60;;;4.15;;
40503;SDS011;42292;49.048;8.374;2022-11-20T17:16:24;18.13;;;12.10;;
40503;SDS011;42292;49.048;8.374;2022-11-20T17:18:50;20.70;;;12.25;;
40503;SDS011;42292;49.048;8.374;2022-11-20T17:21:20;7.53;;;4.85;;
40503;SDS011;42292;49.048;8.374;2022-11-20T17:23:50;5.20;;;2.78;;
40503;SDS011;42292;49.048;8.374;2022-11-20T17:26:20;4.75;;;1.90;;
40503;SDS011;42292;49.048;8.374;2022-11-20T17:28:54;3.42;;;2.47;;